»·PEaware :: N3141P KASE-KSNA

N3141P :: KASE-KSNA

FLIGHT INFORMATION

Flight Status: Arrived
Operator: Privately registered:
United States
More flights under this callsign
Pilot: Andrew N. (12823)
Aircraft: ECLIPSE 500
(EA50)
More flights by this aircraft type
Origin: KASE Aspen-Pitkin Co/Sardy
United States
Destination: KSNA John Wayne-Orange Co
United States
More flights between these airports :: More routes between these airports
Route: LINDZ8 JNC HVE BAWER Q114 NATEE DSNEE1
File this flight plan on PilotEdge
Remarks:
Altitude:
(Current/Filed)
40,000ft
Speed:
(Current/Filed)
475kts
Departed: 31-Oct-17 05:50 PM
Arrived: 31-Oct-17 08:02 PM
Distance/Time
Traveled:
626nm/2:12
Distance/Time
To Go:
Arrived

Flight Plot

Page will automatically refresh every two minutes.

Flight plan parsing failed; only flown route is shown


Map Options




Map Legend


Flown Route
Filed Route
Departure Airport
Arrival Airport
Navaid (VOR, NDB)
Fix

Horizontal Profiles

Position Reports

Time Latitude Longitude Heading Altitude Ground
Speed
31-Oct-17 17:46 39.218524 -106.864250 248 7780ft 0kts
31-Oct-17 17:47 39.218524 -106.864250 248 7780ft 0kts
31-Oct-17 17:48 39.218524 -106.864250 248 7779ft 0kts
31-Oct-17 17:49 39.218524 -106.864250 248 7779ft 0kts
31-Oct-17 17:50 39.218595 -106.864615 287 7778ft 0kts
31-Oct-17 17:51 39.218651 -106.864871 271 7777ft 0kts
31-Oct-17 17:52 39.218663 -106.865044 274 7776ft 0kts
31-Oct-17 17:53 39.218680 -106.865211 277 7776ft 4kts
31-Oct-17 17:54 39.214647 -106.863618 157 7803ft 31kts
31-Oct-17 17:55 39.216577 -106.865711 339 7791ft 83kts
31-Oct-17 17:56 39.249500 -106.875594 351 8573ft 183kts
31-Oct-17 17:57 39.286680 -106.906158 281 10694ft 209kts
31-Oct-17 17:58 39.295667 -106.973187 281 12857ft 217kts
31-Oct-17 17:59 39.308104 -107.042492 310 14875ft 221kts
31-Oct-17 18:00 39.346240 -107.097101 313 16760ft 227kts
31-Oct-17 18:01 39.381676 -107.157235 276 18756ft 227kts
31-Oct-17 18:02 39.372755 -107.223343 268 21387ft 183kts
31-Oct-17 18:03 39.362537 -107.285626 264 22599ft 202kts
31-Oct-17 18:04 39.349412 -107.357666 263 23515ft 229kts
31-Oct-17 18:05 39.334612 -107.435016 263 24741ft 234kts
31-Oct-17 18:06 39.319849 -107.510530 264 25604ft 248kts
31-Oct-17 18:07 39.306930 -107.576323 265 26306ft 257kts
31-Oct-17 18:08 39.291416 -107.654965 265 27220ft 263kts
31-Oct-17 18:09 39.274943 -107.738011 265 28038ft 270kts
31-Oct-17 18:10 39.256992 -107.828026 265 28857ft 277kts
31-Oct-17 18:11 39.239700 -107.914348 265 29543ft 283kts
31-Oct-17 18:12 39.220364 -108.010433 265 30266ft 288kts
31-Oct-17 18:13 39.200960 -108.106420 265 30936ft 293kts
31-Oct-17 18:14 39.180803 -108.205649 265 31575ft 297kts
31-Oct-17 18:15 39.160065 -108.307257 265 32147ft 301kts
31-Oct-17 18:16 39.139118 -108.409380 265 32702ft 305kts
31-Oct-17 18:17 39.117894 -108.512377 265 33188ft 309kts
31-Oct-17 18:18 39.096319 -108.616540 265 33664ft 312kts
31-Oct-17 18:19 39.076285 -108.712824 265 34035ft 316kts
31-Oct-17 18:20 39.050496 -108.818598 257 34493ft 324kts
31-Oct-17 18:21 39.016415 -108.924329 256 34920ft 326kts
31-Oct-17 18:22 38.981681 -109.030582 256 35300ft 328kts
31-Oct-17 18:23 38.946477 -109.137590 256 35658ft 330kts
31-Oct-17 18:24 38.911392 -109.243752 256 36002ft 332kts
31-Oct-17 18:25 38.878273 -109.343588 256 36250ft 333kts
31-Oct-17 18:26 38.841899 -109.453546 253 36215ft 348kts
31-Oct-17 18:27 38.804316 -109.566701 246 36367ft 359kts
31-Oct-17 18:28 38.765848 -109.681364 240 36694ft 361kts
31-Oct-17 18:29 38.729158 -109.789792 237 37503ft 340kts
31-Oct-17 18:30 38.693401 -109.894764 238 38466ft 312kts
31-Oct-17 18:31 38.660491 -109.990840 242 39082ft 292kts
31-Oct-17 18:32 38.628707 -110.083634 248 39256ft 287kts
31-Oct-17 18:33 38.597215 -110.175753 254 39429ft 284kts
31-Oct-17 18:34 38.565876 -110.267670 257 39589ft 289kts
31-Oct-17 18:35 38.533887 -110.361502 257 39825ft 295kts
31-Oct-17 18:36 38.500774 -110.457750 256 39936ft 303kts
31-Oct-17 18:37 38.467174 -110.554948 256 39940ft 313kts
31-Oct-17 18:38 38.431948 -110.656430 255 39940ft 322kts
31-Oct-17 18:39 38.390214 -110.753894 247 39942ft 335kts
31-Oct-17 18:40 38.341982 -110.854263 247 39939ft 342kts
31-Oct-17 18:41 38.291936 -110.957351 247 39943ft 347kts
31-Oct-17 18:42 38.241647 -111.060550 247 39944ft 350kts
31-Oct-17 18:43 38.190709 -111.164709 247 39944ft 352kts
31-Oct-17 18:44 38.139959 -111.268150 247 39944ft 353kts
31-Oct-17 18:45 38.088684 -111.372322 247 39945ft 355kts
31-Oct-17 18:46 38.037373 -111.476166 247 39943ft 356kts
31-Oct-17 18:47 37.985669 -111.580553 247 39965ft 359kts
31-Oct-17 18:48 37.934403 -111.683740 246 40090ft 356kts
31-Oct-17 18:49 37.884569 -111.783733 246 40098ft 357kts
31-Oct-17 18:50 37.834800 -111.883268 246 40097ft 356kts
31-Oct-17 18:51 37.782568 -111.987409 246 40098ft 355kts
31-Oct-17 18:52 37.730850 -112.090201 246 40098ft 355kts
31-Oct-17 18:53 37.679092 -112.192766 246 40100ft 355kts
31-Oct-17 18:54 37.626473 -112.294878 242 40099ft 356kts
31-Oct-17 18:55 37.571340 -112.394145 242 40100ft 355kts
31-Oct-17 18:56 37.505042 -112.512912 242 40100ft 354kts
31-Oct-17 18:57 37.446400 -112.617565 242 40101ft 354kts
31-Oct-17 18:58 37.398288 -112.703183 242 40104ft 354kts
31-Oct-17 18:59 37.342221 -112.802676 242 40104ft 354kts
31-Oct-17 19:00 37.286420 -112.901410 241 40028ft 356kts
31-Oct-17 19:01 37.229976 -113.000967 241 40024ft 356kts
31-Oct-17 19:02 37.174373 -113.098757 241 40044ft 355kts
31-Oct-17 19:03 37.118271 -113.196111 238 40051ft 357kts
31-Oct-17 19:04 37.057096 -113.290777 238 40052ft 357kts
31-Oct-17 19:05 36.995139 -113.386052 238 40052ft 357kts
31-Oct-17 19:06 36.933681 -113.480240 238 39980ft 359kts
31-Oct-17 19:07 36.874398 -113.570796 238 39961ft 357kts
31-Oct-17 19:08 36.815746 -113.660153 237 39963ft 355kts
31-Oct-17 19:09 36.759963 -113.744933 237 39965ft 354kts
31-Oct-17 19:10 36.698980 -113.837368 237 39965ft 353kts
31-Oct-17 19:11 36.637222 -113.930094 236 39963ft 352kts
31-Oct-17 19:12 36.575008 -114.021770 235 39966ft 353kts
31-Oct-17 19:13 36.512376 -114.113920 234 39965ft 352kts
31-Oct-17 19:14 36.449864 -114.205412 235 39967ft 354kts
31-Oct-17 19:15 36.386767 -114.297676 235 39959ft 356kts
31-Oct-17 19:16 36.322966 -114.390692 235 39941ft 358kts
31-Oct-17 19:17 36.259222 -114.483362 235 39942ft 359kts
31-Oct-17 19:18 36.194946 -114.576546 235 39942ft 359kts
31-Oct-17 19:19 36.133089 -114.666211 233 39971ft 357kts
31-Oct-17 19:20 36.069816 -114.757155 235 39972ft 357kts
31-Oct-17 19:21 36.006094 -114.848845 235 39950ft 359kts
31-Oct-17 19:22 35.939931 -114.940028 233 39972ft 360kts
31-Oct-17 19:23 35.875808 -115.027647 233 39950ft 360kts
31-Oct-17 19:24 35.810256 -115.116931 233 39936ft 359kts
31-Oct-17 19:25 35.744296 -115.206521 233 39962ft 357kts
31-Oct-17 19:26 35.678262 -115.295837 233 39935ft 355kts
31-Oct-17 19:27 35.623760 -115.369599 233 39938ft 355kts
31-Oct-17 19:28 35.547043 -115.473047 233 39938ft 355kts
31-Oct-17 19:29 35.481007 -115.561830 233 39939ft 356kts
31-Oct-17 19:30 35.427186 -115.633075 233 39939ft 356kts
31-Oct-17 19:31 35.354111 -115.730587 233 39942ft 356kts
31-Oct-17 19:32 35.299306 -115.804069 233 39942ft 356kts
31-Oct-17 19:33 35.233322 -115.892535 231 39969ft 354kts
31-Oct-17 19:34 35.165944 -115.978074 231 39970ft 354kts
31-Oct-17 19:35 35.098139 -116.063244 231 39970ft 355kts
31-Oct-17 19:36 35.030077 -116.148420 231 39971ft 355kts
31-Oct-17 19:37 34.963516 -116.232074 231 39971ft 355kts
31-Oct-17 19:38 34.901371 -116.310126 234 35454ft 302kts
31-Oct-17 19:39 34.858286 -116.364958 236 30817ft 277kts
31-Oct-17 19:40 34.793604 -116.447310 231 25755ft 366kts
31-Oct-17 19:41 34.727924 -116.530568 232 24949ft 328kts
31-Oct-17 19:42 34.659908 -116.607355 224 24002ft 362kts
31-Oct-17 19:43 34.587792 -116.677937 222 21627ft 346kts
31-Oct-17 19:44 34.521922 -116.742332 222 19855ft 329kts
31-Oct-17 19:45 34.456503 -116.815051 226 18134ft 325kts
31-Oct-17 19:46 34.397193 -116.883808 225 16249ft 307kts
31-Oct-17 19:47 34.339561 -116.950596 225 16001ft 309kts
31-Oct-17 19:48 34.282888 -117.015899 223 14652ft 315kts
31-Oct-17 19:49 34.221628 -117.066256 211 13347ft 307kts
31-Oct-17 19:50 34.155409 -117.110709 204 12152ft 299kts
31-Oct-17 19:51 34.087449 -117.147360 206 12115ft 262kts
31-Oct-17 19:52 34.024279 -117.181324 206 12121ft 299kts
31-Oct-17 19:53 33.970080 -117.232954 231 11179ft 283kts
31-Oct-17 19:54 33.925015 -117.296512 230 9376ft 277kts
31-Oct-17 19:55 33.884311 -117.353922 229 7727ft 276kts
31-Oct-17 19:56 33.842255 -117.414880 242 6057ft 267kts
31-Oct-17 19:57 33.847871 -117.486214 281 5983ft 236kts
31-Oct-17 19:58 33.859825 -117.551226 291 5095ft 230kts
31-Oct-17 19:59 33.880346 -117.612894 292 4990ft 233kts
31-Oct-17 20:00 33.899878 -117.672050 291 4408ft 231kts
31-Oct-17 20:01 33.883450 -117.732801 239 4019ft 228kts
31-Oct-17 20:02 33.837358 -117.766398 208 3507ft 234kts
31-Oct-17 20:03 33.790172 -117.796229 208 2494ft 226kts
31-Oct-17 20:04 33.748362 -117.820764 209 1584ft 164kts
31-Oct-17 20:05 33.719668 -117.839203 209 933ft 121kts
31-Oct-17 20:06 33.694576 -117.855117 206 385ft 112kts
31-Oct-17 20:07 33.677051 -117.865982 141 48ft 12kts
31-Oct-17 20:08 33.674049 -117.866569 204 48ft 32kts
31-Oct-17 20:09 33.671723 -117.867023 92 49ft 0kts

Navigation Log

Ident Type
Flight plan parsing failed, navigation log unavailable